Latest Weather Observations for Yarram Airport

IDV60801

Issued at 5:22 pm EDT Sunday 18 November 2018 (issued every 10 minutes, with the page automatically refreshed every 10 minutes)

About weather observations | Map of weather stations | Latest weather observations for VIC | Other Formats
Station Details ID: 085151 Name: YARRAM AIRPORT Lat: -38.56 Lon: 146.75 Height: 17.9 m
Data from the previous 72 hours. | See also: Recent months at Yarram Airport
Date/Time
EDT
Temp
°C
App
Temp
°C
Dew
Point
°C
Rel
Hum
%
Delta-T
°C
Wind Press
QNH
hPa
Press
MSL
hPa
Rain since
9am
mm
Dir  Spd
km/h
Gust
km/h
Spd
kts
Gust
kts
18/05:00pm 19.3 14.1 10.3 56 4.8 ENE 28 41 15 22 1021.1 1021.1 0.0
18/04:30pm 19.9 14.3 10.0 53 5.3 ENE 30 43 16 23 1021.2 1021.2 0.0
18/04:00pm 19.8 13.9 9.1 50 5.6 E 30 44 16 24 1021.4 1021.4 0.0
18/03:31pm 20.3 14.2 8.3 46 6.3 E 30 48 16 26 1021.6 1021.6 0.0
18/03:30pm 20.8 15.5 10.0 50 5.8 E 28 44 15 24 1021.7 1021.7 0.0
18/03:00pm 20.5 14.3 9.4 49 5.9 E 32 43 17 23 1021.8 1021.8 0.0
18/02:30pm 21.2 16.0 8.8 45 6.6 E 26 43 14 23 1022.0 1022.0 0.0
18/02:00pm 20.8 14.4 8.4 45 6.5 E 32 43 17 23 1022.3 1022.3 0.0
18/01:30pm 20.6 14.7 9.2 48 6.0 E 30 43 16 23 1022.6 1022.6 0.0
18/01:07pm 21.1 15.8 10.0 49 6.0 E 28 46 15 25 1022.6 1022.6 0.0
18/01:00pm 20.6 14.7 8.9 47 6.1 E 30 44 16 24 1022.6 1022.6 0.0
18/12:31pm 20.3 14.7 8.9 48 6.0 E 28 46 15 25 1022.7 1022.7 0.0
18/12:30pm 20.5 15.0 9.1 48 6.0 E 28 41 15 22 1022.8 1022.8 0.0
18/12:00pm 20.9 16.0 9.8 49 5.9 ENE 26 41 14 22 1023.2 1023.2 0.0
18/11:30am 20.4 15.3 9.3 49 5.9 E 26 39 14 21 1023.5 1023.5 0.0
18/11:00am 19.7 14.6 9.3 51 5.5 ENE 26 39 14 21 1023.6 1023.6 0.0
18/10:30am 19.9 14.6 9.8 52 5.4 E 28 37 15 20 1023.8 1023.8 0.0
18/10:00am 19.1 13.9 9.0 52 5.3 ENE 26 37 14 20 1023.9 1023.9 0.0
18/09:30am 18.7 14.1 9.5 55 4.9 ENE 24 37 13 20 1024.1 1024.1 0.0
18/09:00am 18.2 13.3 8.5 53 5.0 ENE 24 37 13 20 1024.0 1024.0 0.0
18/08:30am 17.5 15.1 12.6 73 2.7 ENE 17 24 9 13 1024.1 1024.1 0.0
18/08:00am 14.6 14.0 14.6 100 0.0 ENE 11 20 6 11 1024.0 1024.0 0.0
18/07:30am 11.8 11.6 11.8 100 0.0 NE 4 9 2 5 1023.9 1023.9 0.0
18/07:00am 7.8 7.3 7.8 100 0.0 CALM 0 0 0 0 1023.7 1023.7 0.0
18/06:30am 5.1 2.9 5.1 100 0.0 W 6 7 3 4 1023.5 1023.5 0.0
18/06:00am 3.7 2.3 3.7 100 0.0 CALM 0 0 0 0 1023.1 1023.1 0.0
18/05:30am 3.6 2.2 3.6 100 0.0 CALM 0 0 0 0 1022.9 1022.9 0.0
18/05:00am 3.8 2.1 3.8 100 0.0 E 2 6 1 3 1022.7 1022.7 0.0
18/04:30am 4.8 3.6 4.8 100 0.0 CALM 0 0 0 0 1022.9 1022.9 0.0
18/04:00am 6.2 5.3 6.2 100 0.0 CALM 0 0 0 0 1022.9 1022.9 0.0
18/03:30am 5.7 3.4 5.7 100 0.0 NE 7 9 4 5 1023.0 1023.0 0.0
18/03:00am 6.3 3.7 6.3 100 0.0 NE 9 11 5 6 1023.3 1023.3 0.0
18/02:30am 5.8 3.1 5.8 100 0.0 NE 9 11 5 6 1023.5 1023.5 0.0
18/02:00am 6.6 4.7 6.6 100 0.0 NE 6 7 3 4 1023.8 1023.8 0.0
18/01:30am 6.6 4.7 6.6 100 0.0 NNE 6 7 3 4 1024.2 1024.2 0.0
18/01:00am 6.9 4.5 6.9 100 0.0 NNE 9 9 5 5 1024.5 1024.5 0.0
18/12:30am 7.0 5.2 7.0 100 0.0 NNE 6 9 3 5 1024.9 1024.9 0.0
18/12:00am 7.1 5.3 7.0 99 0.0 N 6 7 3 4 1025.1 1025.1 0.0
 
Date/Time
EDT
Temp
°C
App
Temp
°C
Dew
Point
°C
Rel
Hum
%
Delta-T
°C
Wind Press
QNH
hPa
Press
MSL
hPa
Rain since
9am
mm
Dir  Spd
km/h
Gust
km/h
Spd
kts
Gust
kts
17/11:30pm 7.5 5.7 7.2 98 0.1 N 6 6 3 3 1025.2 1025.2 0.0
17/11:00pm 8.2 6.6 7.8 97 0.2 N 6 7 3 4 1025.3 1025.3 0.0
17/10:30pm 8.3 6.4 7.5 95 0.4 NNE 7 9 4 5 1025.3 1025.3 0.0
17/10:00pm 8.6 6.7 7.5 93 0.5 NNE 7 7 4 4 1025.4 1025.4 0.0
17/09:30pm 10.0 8.5 8.4 90 0.8 NE 6 7 3 4 1025.4 1025.4 0.0
17/09:00pm 11.1 9.7 8.7 85 1.2 E 6 7 3 4 1025.1 1025.1 0.0
17/08:30pm 13.0 11.3 10.0 82 1.5 ESE 9 11 5 6 1024.8 1024.8 0.0
17/08:00pm 14.6 12.2 10.0 74 2.4 SE 13 17 7 9 1024.7 1024.7 0.0
17/07:30pm 15.9 12.6 9.6 66 3.3 ESE 17 20 9 11 1024.4 1024.4 0.0
17/07:00pm 17.0 13.7 8.2 56 4.5 ESE 15 22 8 12 1024.1 1024.1 0.0
17/06:30pm 17.6 14.2 9.2 58 4.4 SE 17 20 9 11 1023.9 1023.9 0.0
17/06:00pm 18.1 14.6 8.7 54 4.8 SE 17 22 9 12 1023.8 1023.8 0.0
17/05:30pm 18.6 15.3 9.7 56 4.7 SE 17 26 9 14 1023.7 1023.7 0.0
17/05:00pm 18.8 15.8 9.3 54 5.0 ESE 15 24 8 13 1023.6 1023.6 0.0
17/04:30pm 18.4 15.0 9.2 55 4.8 SE 17 24 9 13 1023.5 1023.5 0.0
17/04:00pm 18.8 15.5 9.6 55 4.8 SE 17 28 9 15 1023.6 1023.6 0.0
17/03:30pm 19.6 15.6 8.3 48 5.9 SSE 19 28 10 15 1023.7 1023.7 0.0
17/03:00pm 19.8 15.8 9.1 50 5.6 SE 20 28 11 15 1023.7 1023.7 0.0
17/02:30pm 19.3 15.2 8.6 50 5.6 SSE 20 28 11 15 1023.8 1023.8 0.0
17/02:00pm 19.7 15.6 8.7 49 5.7 SSE 20 28 11 15 1023.9 1023.9 0.0
17/01:30pm 18.9 14.8 7.7 48 5.7 SSE 19 28 10 15 1024.0 1024.0 0.0
17/01:00pm 19.5 15.4 8.8 50 5.6 SSE 20 30 11 16 1024.1 1024.1 0.0
17/12:30pm 19.3 16.2 8.9 51 5.4 S 15 22 8 12 1024.2 1024.2 0.0
17/12:00pm 18.8 15.6 8.5 51 5.3 SSE 15 26 8 14 1024.1 1024.1 0.0
17/11:30am 17.6 14.3 7.9 53 4.9 SSE 15 26 8 14 1024.3 1024.3 0.0
17/11:00am 16.5 12.8 8.0 57 4.3 SSW 17 24 9 13 1024.4 1024.4 0.0
17/10:30am 16.7 14.0 9.1 61 3.9 SSW 13 24 7 13 1024.3 1024.3 0.0
17/10:00am 15.9 13.2 8.9 63 3.6 S 13 19 7 10 1024.3 1024.3 0.0
17/09:30am 17.0 14.7 10.4 65 3.5 SW 13 19 7 10 1024.1 1024.1 0.0
17/09:00am 16.2 13.8 10.1 67 3.2 SSW 13 19 7 10 1024.2 1024.2 0.0
17/08:30am 14.8 11.6 9.8 72 2.6 SW 17 22 9 12 1024.0 1024.0 0.0
17/08:00am 14.0 11.0 9.2 73 2.4 W 15 19 8 10 1023.7 1023.7 0.0
17/07:30am 12.5 9.9 9.3 81 1.6 W 13 17 7 9 1023.5 1023.5 0.0
17/07:00am 10.9 8.7 9.2 89 0.8 W 11 13 6 7 1023.2 1023.2 0.0
17/06:30am 9.3 6.8 8.4 94 0.4 WNW 11 13 6 7 1022.8 1022.8 0.0
17/06:00am 8.4 5.3 7.3 93 0.5 WNW 13 15 7 8 1022.4 1022.4 0.0
17/05:30am 8.1 4.9 7.0 93 0.5 WNW 13 15 7 8 1022.1 1022.1 0.0
17/05:00am 8.4 4.9 7.3 93 0.5 WNW 15 15 8 8 1021.9 1021.9 0.0
17/04:30am 8.3 5.2 7.1 92 0.6 WNW 13 15 7 8 1021.8 1021.8 0.0
17/04:00am 8.3 5.1 6.8 90 0.7 WNW 13 15 7 8 1021.7 1021.7 0.0
17/03:30am 8.3 5.1 6.8 90 0.7 WNW 13 15 7 8 1021.6 1021.6 0.0
17/03:00am 8.4 5.2 6.7 89 0.8 WNW 13 15 7 8 1021.6 1021.6 0.0
17/02:30am 8.2 5.6 6.3 88 0.9 WNW 9 11 5 6 1021.8 1021.8 0.0
17/02:00am 8.7 5.5 6.8 88 0.9 W 13 15 7 8 1021.9 1021.9 0.0
17/01:30am 8.9 5.7 6.9 87 0.9 WNW 13 15 7 8 1022.0 1022.0 0.0
17/01:00am 9.2 6.0 7.0 86 1.0 WNW 13 15 7 8 1022.2 1022.2 0.0
17/12:30am 9.5 6.8 7.4 87 1.0 WNW 11 15 6 8 1022.2 1022.2 0.0
17/12:00am 10.4 7.5 8.2 86 1.1 WNW 13 15 7 8 1022.3 1022.3 0.0
 
Date/Time
EDT
Temp
°C
App
Temp
°C
Dew
Point
°C
Rel
Hum
%
Delta-T
°C
Wind Press
QNH
hPa
Press
MSL
hPa
Rain since
9am
mm
Dir  Spd
km/h
Gust
km/h
Spd
kts
Gust
kts
16/11:30pm 10.6 7.7 8.2 85 1.2 W 13 15 7 8 1022.2 1022.2 0.0
16/11:00pm 11.4 8.4 9.1 86 1.1 W 15 20 8 11 1022.2 1022.2 0.0
16/10:30pm 11.5 9.0 9.8 89 0.9 WNW 13 15 7 8 1022.2 1022.2 0.0
16/10:00pm 11.3 8.8 9.6 89 0.9 WNW 13 13 7 7 1021.9 1021.9 0.0
16/09:30pm 11.8 9.0 9.9 88 1.0 WNW 15 17 8 9 1021.7 1021.7 0.0
16/09:00pm 12.5 9.4 10.4 87 1.1 W 17 22 9 12 1021.3 1021.3 0.0
16/08:30pm 13.1 9.7 10.5 84 1.4 WSW 19 22 10 12 1021.0 1021.0 0.0
16/08:00pm 14.2 10.3 10.8 80 1.8 WSW 22 28 12 15 1020.7 1020.7 0.0
16/07:30pm 16.1 11.4 10.8 71 2.8 SW 26 35 14 19 1020.4 1020.4 0.0
16/07:00pm 16.9 13.9 10.7 67 3.3 SW 17 32 9 17 1020.0 1020.0 0.0
16/06:30pm 17.1 13.7 10.7 66 3.4 SW 19 24 10 13 1019.6 1019.6 0.0
16/06:00pm 17.3 15.4 10.4 64 3.7 S 11 15 6 8 1019.4 1019.4 0.0
16/05:30pm 17.4 14.6 10.1 62 3.9 SSE 15 20 8 11 1019.1 1019.1 0.0
16/05:00pm 18.1 15.3 10.0 59 4.3 SE 15 20 8 11 1018.9 1018.9 0.0
16/04:30pm 18.6 16.0 9.4 55 4.8 SE 13 22 7 12 1018.8 1018.8 0.0
16/04:00pm 19.7 16.2 10.1 54 5.1 SE 19 26 10 14 1018.7 1018.7 0.0
16/03:30pm 18.7 14.7 9.2 54 5.0 SE 20 32 11 17 1018.6 1018.6 0.0
16/03:00pm 20.3 16.8 11.0 55 5.1 SE 20 32 11 17 1018.7 1018.7 0.0
16/02:30pm 19.4 16.2 9.9 54 5.1 ESE 17 24 9 13 1018.9 1018.9 0.0
16/02:00pm 20.1 16.8 10.8 55 5.1 E 19 26 10 14 1018.9 1018.9 0.0
16/01:30pm 19.6 15.7 10.9 57 4.7 ESE 22 32 12 17 1019.0 1019.0 0.0
16/01:00pm 18.6 14.8 9.9 57 4.6 E 20 28 11 15 1019.2 1019.2 0.0
16/12:30pm 18.9 15.0 10.7 59 4.4 E 22 32 12 17 1019.4 1019.4 0.0
16/12:00pm 18.4 14.5 10.8 61 4.1 E 22 33 12 18 1019.7 1019.7 0.0
16/11:30am 18.6 14.6 10.4 59 4.4 E 22 33 12 18 1019.8 1019.8 0.0
16/11:00am 18.4 14.4 10.3 59 4.3 E 22 33 12 18 1020.0 1020.0 0.0
16/10:30am 18.3 14.6 10.2 59 4.3 ENE 20 32 11 17 1020.2 1020.2 0.0
16/10:00am 17.6 13.9 9.5 59 4.2 ENE 19 30 10 16 1020.7 1020.7 0.0
16/09:30am 16.5 12.2 9.2 62 3.8 NE 22 33 12 18 1021.0 1021.0 0.0
16/09:00am 16.3 13.5 9.9 66 3.3 ENE 15 32 8 17 1021.2 1021.2 0.0
16/08:30am 14.8 12.6 10.8 77 2.1 ENE 13 20 7 11 1021.4 1021.4 0.0
16/08:00am 12.6 11.7 12.6 100 0.0 NNE 9 17 5 9 1021.5 1021.5 0.0
16/07:30am 11.1 11.5 11.1 100 0.0 CALM 0 0 0 0 1021.0 1021.0 0.0
16/07:00am 8.7 7.3 8.7 100 0.0 ENE 6 7 3 4 1020.9 1020.9 0.0
16/06:30am 5.5 4.5 5.5 100 0.0 CALM 0 0 0 0 1020.9 1020.9 0.0
16/06:00am 5.4 3.2 5.4 100 0.0 NNE 6 9 3 5 1020.8 1020.8 0.0
16/05:30am 6.3 3.4 6.3 100 0.0 NE 11 13 6 7 1020.3 1020.3 0.0
16/05:00am 5.4 1.9 5.4 100 0.0 NE 13 15 7 8 1020.4 1020.4 0.0
16/04:30am 4.6 2.1 4.6 100 0.0 NE 7 9 4 5 1020.8 1020.8 0.0
16/04:00am 5.4 3.2 5.4 100 0.0 NNE 6 7 3 4 1021.5 1021.5 0.0
16/03:30am 5.5 4.5 5.5 100 0.0 CALM 0 0 0 0 1022.2 1022.2 0.0
16/03:00am 5.6 4.6 5.5 99 0.0 CALM 0 0 0 0 1022.8 1022.8 0.0
16/02:30am 6.2 4.2 6.2 100 0.0 W 6 7 3 4 1023.2 1023.2 0.0
16/02:00am 5.6 3.4 5.5 99 0.0 WNW 6 9 3 5 1023.6 1023.6 0.0
16/01:30am 5.2 2.3 4.8 97 0.2 NNE 9 11 5 6 1023.9 1023.9 0.0
16/01:00am 6.0 3.7 5.7 98 0.1 N 7 7 4 4 1024.3 1024.3 0.0
16/12:30am 6.6 4.0 6.2 97 0.2 NW 9 11 5 6 1025.0 1025.0 0.0
16/12:00am 5.9 3.1 5.3 96 0.3 W 9 13 5 7 1025.3 1025.3 0.0
 
Date/Time
EDT
Temp
°C
App
Temp
°C
Dew
Point
°C
Rel
Hum
%
Delta-T
°C
Wind Press
QNH
hPa
Press
MSL
hPa
Rain since
9am
mm
Dir  Spd
km/h
Gust
km/h
Spd
kts
Gust
kts
15/11:30pm 5.4 3.0 4.4 93 0.4 WNW 6 7 3 4 1025.3 1025.3 0.0
15/11:00pm 5.6 3.6 4.4 92 0.5 WNW 4 9 2 5 1025.4 1025.4 0.0
15/10:30pm 7.1 5.7 5.7 91 0.6 NNW 2 6 1 3 1025.4 1025.4 0.0
15/10:00pm 7.1 4.7 5.3 88 0.8 NNW 7 7 4 4 1025.5 1025.5 0.0
15/09:30pm 7.9 5.7 5.5 85 1.1 NNE 6 7 3 4 1025.1 1025.1 0.0
15/09:00pm 8.5 6.2 4.7 77 1.7 E 6 7 3 4 1024.9 1024.9 0.0
15/08:30pm 11.2 8.7 6.7 74 2.1 ESE 9 11 5 6 1024.5 1024.5 0.0
15/08:00pm 12.0 9.6 6.9 71 2.4 SE 9 13 5 7 1024.5 1024.5 0.0
15/07:30pm 13.3 9.4 6.9 65 3.1 SE 17 20 9 11 1024.4 1024.4 0.0
15/07:00pm 14.2 9.8 7.5 64 3.3 SSE 20 24 11 13 1024.3 1024.3 0.0
15/06:30pm 14.9 10.4 7.0 59 3.9 SSE 20 28 11 15 1024.0 1024.0 0.0
15/06:00pm 15.4 10.6 7.4 59 3.9 SSE 22 28 12 15 1023.7 1023.7 0.0
15/05:30pm 16.4 11.7 7.9 57 4.3 SSE 22 28 12 15 1023.7 1023.7 0.0

Other Formats:

Comma delimited format used in spreadsheet applications
http://www.bom.gov.au/fwo/IDV60801/IDV60801.95890.axf

JavaScript Object Notation format (JSON) in row-major order
http://www.bom.gov.au/fwo/IDV60801/IDV60801.95890.json